首页
METAR-TAF:

METAR-TAF

机场 :

Soldotna, 阿拉斯加州, 美国

纬度: 60-29N, 经度: 151-02W, 海拔: 33米

当前天气观测

该预报发布于1小时和18分钟前的21:56 UTC
风速22节,风向,有时为28节阵风
温度 6°C
湿度 56%
气压 1023 hPa
能見度: 16.1公里
少量云层高于11000英尺

METAR: PASX 172156Z AUTO 09022G28KT 10SM FEW110 06/M02 A3020 RMK AO2 PK WND 09029/2142 SLP232 T00561017

时间: 15:14 (23:14 UTC)


TAF: 丢失

超过4000个机场的气象观测和天气预报(METAR&TAF报告)。

可查询的气象台以黄色和红色小点在地图上表示。

将鼠标移到小点上方,可查看气象台名称。

然后点击查看天气观测和预报。

如需切换地图:点击带黑十字的绿色按钮放大地图;点击带横线的绿色按钮缩小地图;或者点击绿色箭头查看邻近地区的地图。


METAR-TAF: